الصفحة الرئيسية
METAR-TAF:

METAR-TAF

مطار :

لاباز, بوليفيا

دائرة عرض: 16-31S, خط طول: 068-11W, ارتفاع: 4058 متر

مراقبة الطقس الحالي

تاريخ ووقت الإصدار 38 دقيقة قبل الساعة 09:00UTC
ريح 3 عقدة من الشرق
درجة الحرارة -2°درجة مئوية
الرطوبة 93%
ضغط 1039 hPa
الرؤية: 4000 متر
غيوم قليلة على ارتفاع 200 قدم
غيوم متفرقة على ارتفاع 7000 قدم
ضباب بالجوار

METAR: SLLP 170900Z 08003KT 4000E VCFG FEW002 SCT070 M02/M03 Q1039

زمن: 05:38 (09:38 UTC)

توقعات

تاريخ ووقت الإصدار 5ساعات و 38 دقيقة قبل الساعة 04:00UTC
التوقعات صالحة من17 الساعة 06 UTC إلى 18 الساعة 06 UTC
ريح 6 عقدة من الشرق
الرؤية: 4000 متر
غيوم قليلة على ارتفاع 200 قدم
غيوم متفرقة على ارتفاع 1300 قدم
ضباب بالجوار
أصبح
من 17 الساعة 12 UTC إلى 17 الساعة 14 UTC
ريح 6 عقدة من الجنوب الشرقي
الرؤية 10 كم أو أكثر
غيوم قليلة على ارتفاع 1500 قدم
مؤقت
من 17 الساعة 18 UTC إلى الساعة UTC
الرؤية: 1722 متر
غيوم قليلة على ارتفاع 2000 قدم
غيوم قليلة على ارتفاع 2300 قدم, مزنة ركامية.

TAF: SLLP 170400Z 1706/1806 08006KT 4000E VCFG FEW002 SCT013 TX13/ 1720Z TNM05/1710Z BECMG 1712/1714 13006KT 9999 NSW FEW015 TEMPO 1718/ 1722 FEW020 FEW023CB

أرصاد الطقس والتوقعات من أكثر من 4000 مطار (تقارير الطقس للمطار METAR والتنبؤ بالطقس بالمطارTAF).

المحطات المتاحة هي النقط الصفراء والحمراء على الخريطة.

حرك المؤشر فوق النقطة لمعرفة اسم المحطة.

ثم انقر لمعرفة أرصاد وتوقعات الطقس.

لتغيير الخارطة: اضغط على الأزرار الخضراء مع رمز الصليب الأسود للتكبير. على الزر الأخضر مع شرطة للتصغير، أو على الأسهم الخضراء للخرائط المجاورة.


METAR-TAF: